Osseo, MN (55311)

10:23 AM CST on January 16, 2017 (GMT -0600)
Government Center | | Change Station

Elev 922 ft 45.10 °N, 93.44 °W | Updated 27 minutes ago

Mostly Cloudy
Mostly Cloudy
21.4 °F
Feels Like 21 °F
N
0.0
Wind Variable Wind from SSE
Gusts 0.0 mph

Today
High -- | Low -- °F
--% Chance of Precip.
Yesterday
High -- | Low -- °F
Precip. -- in
Pressure 30.20 in
Visibility 7.0 miles
Clouds Clear
Windchill 21 °F
Dew Point 18 °F
Humidity 85%
Rainfall 0.00 in
Snow Depth Not available.
7:47 AM 4:59 PM
Waning Gibbous, 80% visible
METAR KMIC 161553Z 00000KT 7SM CLR M09/M11 A3016 RMK AO2 SLP227 I1000 T10941111
Pressure 30.20 in
Visibility 7.0 miles
Clouds Clear
Windchill 21 °F
Dew Point 18 °F
Humidity 85%
Rainfall 0.00 in
Snow Depth Not available.
7:47 AM 4:59 PM
Waning Gibbous, 80% visible
METAR KMIC 161553Z 00000KT 7SM CLR M09/M11 A3016 RMK AO2 SLP227 I1000 T10941111

Get Your Daily Forecast Email!

Thanks for signing up!

Be on the lookout for a verification email in your inbox.

You'll start receiving the daily forecast at 8 AM.

×

10-Day Weather Forecast

Almanac

Astronomy

Jan. 16, 2017 Rise Set
Actual Time
Civil Twilight
Nautical Twilight
Astronomical Twilight
Moon
Length of Visible Light
Length of Day
Tomorrow will be .
, % of the Moon is Illuminated

Today's Extremes

State Highs State Lows

Community

WunderPhotos

Upload Photos

1,962,540 photos uploaded!

WunderBlog® & News

Nearby

Air Quality

  Air Quality AQ Index Pollutant
Not available.

Snow Depth

Station Depth Elevation

Earthquake Activity

City Distance Mag. Time & Date
Minimum magnitude displayed is 2.5.

Coastal Water Temperatures

Place Temperature

Stations

Nearby Weather Stations

Station Location Temp. Windchill Dew Point Humidity Wind Precip. Elev Updated Type
                   

Watches & Warnings

There are currently no watches in effect.